createdAt,value
2023-04-21T00:01:08.726Z,11.77
2023-04-21T00:03:38.824Z,11.75
2023-04-21T00:06:07.434Z,11.73
2023-04-21T00:08:42.355Z,11.71
2023-04-21T00:11:10.873Z,11.70
2023-04-21T00:13:39.050Z,11.69
2023-04-21T00:16:07.654Z,11.68
2023-04-21T00:18:35.792Z,11.66
2023-04-21T00:21:03.945Z,11.64
2023-04-21T00:23:32.065Z,11.61
2023-04-21T00:26:03.193Z,11.57
2023-04-21T00:28:32.243Z,11.52
2023-04-21T00:31:00.497Z,11.47
2023-04-21T00:33:28.855Z,11.40
2023-04-21T00:35:59.420Z,11.33
2023-04-21T00:38:29.281Z,11.30
2023-04-21T00:40:57.340Z,11.26
2023-04-21T00:43:28.424Z,11.23
2023-04-21T00:45:56.563Z,11.21
2023-04-21T00:48:24.916Z,11.17
2023-04-21T00:50:52.931Z,11.13
2023-04-21T00:53:21.154Z,11.09
2023-04-21T00:55:50.454Z,11.07
2023-04-21T00:58:18.759Z,11.06
2023-04-21T01:00:46.754Z,11.07
2023-04-21T01:03:14.957Z,11.08
2023-04-21T01:05:43.261Z,11.11
2023-04-21T01:08:13.453Z,11.12
2023-04-21T01:10:41.479Z,11.12
2023-04-21T01:13:09.437Z,11.13
2023-04-21T01:15:37.453Z,11.14
2023-04-21T01:18:06.646Z,11.14
2023-04-21T01:20:36.282Z,11.13
2023-04-21T01:23:07.823Z,11.13
2023-04-21T01:25:36.260Z,11.13
2023-04-21T01:28:05.079Z,11.11
2023-04-21T01:30:33.143Z,11.07
2023-04-21T01:33:01.379Z,11.03
2023-04-21T01:35:29.582Z,11.00
2023-04-21T01:37:57.663Z,10.98
2023-04-21T01:40:25.746Z,10.97
2023-04-21T01:42:53.763Z,10.95
2023-04-21T01:45:21.804Z,10.95
2023-04-21T01:47:49.845Z,10.94
2023-04-21T01:50:18.526Z,10.92
2023-04-21T01:52:46.516Z,10.89
2023-04-21T01:55:16.435Z,10.89
2023-04-21T01:57:44.465Z,10.90
2023-04-21T02:00:13.506Z,10.91
2023-04-21T02:02:46.192Z,10.91
2023-04-21T02:05:14.677Z,10.89
2023-04-21T02:07:42.857Z,10.86
2023-04-21T02:10:11.710Z,10.85
2023-04-21T02:12:40.835Z,10.85
2023-04-21T02:15:11.751Z,10.84
2023-04-21T02:17:43.055Z,10.83
2023-04-21T02:20:12.429Z,10.81
2023-04-21T02:22:40.878Z,10.78
2023-04-21T02:25:09.072Z,10.77
2023-04-21T02:27:37.223Z,10.75
2023-04-21T02:30:06.486Z,10.73
2023-04-21T02:32:35.461Z,10.72
2023-04-21T02:35:06.063Z,10.69
2023-04-21T02:37:35.418Z,10.66
2023-04-21T02:40:03.845Z,10.63
2023-04-21T02:42:34.268Z,10.62
2023-04-21T02:45:02.287Z,10.62
2023-04-21T02:47:30.462Z,10.63
2023-04-21T02:49:58.360Z,10.64
2023-04-21T02:52:26.802Z,10.64
2023-04-21T02:54:54.737Z,10.64
2023-04-21T02:57:22.703Z,10.63
2023-04-21T02:59:51.354Z,10.59
2023-04-21T03:02:19.267Z,10.58
2023-04-21T03:04:47.154Z,10.57
2023-04-21T03:07:15.030Z,10.55
2023-04-21T03:09:43.375Z,10.54
2023-04-21T03:12:11.355Z,10.52
2023-04-21T03:14:40.087Z,10.52
2023-04-21T03:17:08.003Z,10.50
2023-04-21T03:19:36.081Z,10.51
2023-04-21T03:22:04.202Z,10.53
2023-04-21T03:24:32.900Z,10.55
2023-04-21T03:27:01.836Z,10.57
2023-04-21T03:29:29.788Z,10.59
2023-04-21T03:31:57.735Z,10.57
2023-04-21T03:34:26.283Z,10.56
2023-04-21T03:36:54.274Z,10.55
2023-04-21T03:39:22.622Z,10.55
2023-04-21T03:41:51.435Z,10.56
2023-04-21T03:44:19.392Z,10.58
2023-04-21T03:46:47.263Z,10.60
2023-04-21T03:49:15.174Z,10.62
2023-04-21T03:51:43.098Z,10.64
2023-04-21T03:54:10.975Z,10.66
2023-04-21T03:56:39.072Z,10.69
2023-04-21T03:59:06.966Z,10.73
2023-04-21T04:01:35.545Z,10.73
2023-04-21T04:04:04.052Z,10.75
2023-04-21T04:06:35.636Z,10.77
2023-04-21T04:09:09.708Z,10.82
2023-04-21T04:11:37.972Z,10.88
2023-04-21T04:14:05.902Z,10.93
2023-04-21T04:16:34.922Z,10.99
2023-04-21T04:19:03.723Z,11.03
2023-04-21T04:21:32.591Z,11.03
2023-04-21T04:24:02.374Z,11.05
2023-04-21T04:26:30.373Z,11.05
2023-04-21T04:29:00.472Z,11.06
2023-04-21T04:31:31.159Z,11.08
2023-04-21T04:33:59.065Z,11.11
2023-04-21T04:36:28.492Z,11.18
2023-04-21T04:38:56.552Z,11.27
2023-04-21T04:41:24.555Z,11.36
2023-04-21T04:43:53.672Z,11.43
2023-04-21T04:46:22.337Z,11.49
2023-04-21T04:48:50.749Z,11.56
2023-04-21T04:51:18.909Z,11.64
2023-04-21T04:53:46.818Z,11.76
2023-04-21T04:56:14.789Z,11.89
2023-04-21T04:58:42.757Z,12.07
2023-04-21T05:01:14.950Z,12.39
2023-04-21T05:03:43.514Z,12.94
2023-04-21T05:06:12.140Z,13.66
2023-04-21T05:08:41.550Z,14.48
2023-04-21T05:11:09.616Z,15.27
2023-04-21T05:13:40.024Z,16.08
2023-04-21T05:16:09.817Z,16.87
2023-04-21T05:18:38.101Z,17.61
2023-04-21T05:21:06.240Z,18.36
2023-04-21T05:23:34.922Z,19.01
2023-04-21T05:26:04.537Z,19.52
2023-04-21T05:28:33.703Z,19.94
2023-04-21T05:31:01.591Z,20.28
2023-04-21T05:33:31.991Z,20.60
2023-04-21T05:35:59.978Z,21.01
2023-04-21T05:38:28.190Z,21.43
2023-04-21T05:40:56.277Z,21.78
2023-04-21T05:43:24.310Z,22.07
2023-04-21T05:45:52.260Z,22.34
2023-04-21T05:48:20.287Z,22.58
2023-04-21T05:50:48.287Z,22.75
2023-04-21T05:53:16.663Z,22.95
2023-04-21T05:55:44.612Z,23.15
2023-04-21T05:58:12.587Z,23.30
2023-04-21T06:00:40.585Z,23.40
2023-04-21T06:03:08.665Z,23.52
2023-04-21T06:05:36.742Z,23.71
2023-04-21T06:08:04.807Z,23.82
2023-04-21T06:10:33.377Z,24.01
2023-04-21T06:13:01.522Z,24.24
2023-04-21T06:15:29.415Z,24.48
2023-04-21T06:17:57.438Z,24.62
2023-04-21T06:20:25.474Z,24.78
2023-04-21T06:22:53.544Z,24.97
2023-04-21T06:25:21.551Z,25.07
2023-04-21T06:27:49.426Z,25.17
2023-04-21T06:30:17.740Z,25.33
2023-04-21T06:32:47.793Z,25.47
2023-04-21T06:35:15.875Z,25.47
2023-04-21T06:37:43.818Z,25.48
2023-04-21T06:40:12.633Z,25.55
2023-04-21T06:42:40.712Z,25.68
2023-04-21T06:45:09.836Z,25.80
2023-04-21T06:47:38.267Z,25.88
2023-04-21T06:50:07.472Z,25.96
2023-04-21T06:52:35.786Z,25.99
2023-04-21T06:55:04.012Z,26.09
2023-04-21T06:57:32.403Z,26.25
2023-04-21T07:00:00.681Z,26.25
2023-04-21T07:02:29.168Z,26.18
2023-04-21T07:04:57.328Z,26.19
2023-04-21T07:07:25.646Z,26.34
2023-04-21T07:09:54.010Z,26.48
2023-04-21T07:12:22.025Z,26.51
2023-04-21T07:14:49.921Z,26.47
2023-04-21T07:17:17.857Z,26.37
2023-04-21T07:19:46.377Z,26.41
2023-04-21T07:22:17.779Z,26.56
2023-04-21T07:24:45.976Z,26.69
2023-04-21T07:27:14.395Z,26.70
2023-04-21T07:29:42.767Z,26.73
2023-04-21T07:32:10.798Z,26.69
2023-04-21T07:34:38.819Z,26.73
2023-04-21T07:37:07.172Z,26.78
2023-04-21T07:39:35.358Z,26.73
2023-04-21T07:42:03.472Z,26.78
2023-04-21T07:44:31.860Z,26.91
2023-04-21T07:46:59.784Z,26.98
2023-04-21T07:49:28.682Z,26.83
2023-04-21T07:51:56.660Z,26.45
2023-04-21T07:54:25.788Z,26.26
2023-04-21T07:56:53.725Z,26.14
2023-04-21T07:59:21.891Z,26.10
2023-04-21T08:01:51.768Z,25.94
2023-04-21T08:04:20.136Z,25.84
2023-04-21T08:06:48.782Z,25.90
2023-04-21T08:09:17.762Z,25.90
2023-04-21T08:11:47.298Z,25.46
2023-04-21T08:14:15.358Z,24.86
2023-04-21T08:16:43.513Z,24.06
2023-04-21T08:19:11.682Z,23.52
2023-04-21T08:21:39.795Z,23.04
2023-04-21T08:24:08.687Z,22.85
2023-04-21T08:26:36.652Z,23.12
2023-04-21T08:29:07.442Z,23.69
2023-04-21T08:31:35.809Z,24.33
2023-04-21T08:34:04.721Z,24.84
2023-04-21T08:36:32.895Z,25.17
2023-04-21T08:39:01.572Z,25.34
2023-04-21T08:41:29.741Z,25.35
2023-04-21T08:43:57.947Z,25.14
2023-04-21T08:46:26.386Z,24.65
2023-04-21T08:48:55.902Z,24.13
2023-04-21T08:51:27.899Z,23.65
2023-04-21T08:54:00.606Z,23.22
2023-04-21T08:56:31.801Z,23.02
2023-04-21T08:59:01.574Z,22.82
2023-04-21T09:01:32.847Z,22.57
2023-04-21T09:04:18.853Z,22.31
2023-04-21T09:06:49.603Z,22.23
2023-04-21T09:09:19.847Z,22.15
2023-04-21T09:11:59.618Z,21.84
2023-04-21T09:14:32.604Z,21.54
2023-04-21T09:17:03.750Z,21.36
2023-04-21T09:19:35.618Z,21.15
2023-04-21T09:22:06.301Z,20.84
2023-04-21T09:24:37.194Z,20.63
2023-04-21T09:27:07.335Z,20.60
2023-04-21T09:29:37.778Z,20.64
2023-04-21T09:32:13.609Z,20.76
2023-04-21T09:34:45.110Z,20.84
2023-04-21T09:37:18.202Z,20.99
2023-04-21T09:40:04.157Z,20.99
2023-04-21T09:42:39.654Z,20.94
2023-04-21T09:47:43.688Z,20.68
2023-04-21T09:57:48.690Z,19.83
2023-04-21T10:00:17.973Z,19.42
2023-04-21T10:02:50.299Z,19.11
2023-04-21T10:05:18.517Z,18.95
2023-04-21T10:07:47.896Z,18.88
2023-04-21T10:10:24.751Z,18.96
2023-04-21T10:12:53.008Z,18.88
2023-04-21T10:15:34.063Z,18.92
2023-04-21T10:18:19.274Z,18.84
2023-04-21T10:20:56.537Z,18.72
2023-04-21T10:23:28.929Z,18.52
2023-04-21T10:26:07.337Z,18.31
2023-04-21T10:29:01.081Z,18.06
2023-04-21T10:31:44.655Z,17.93
2023-04-21T10:34:13.340Z,17.74
2023-04-21T10:36:51.934Z,17.70
2023-04-21T10:39:31.379Z,17.60
2023-04-21T10:42:23.203Z,17.53
2023-04-21T10:44:57.327Z,17.42
2023-04-21T10:47:29.453Z,17.43
2023-04-21T10:49:58.287Z,17.46
2023-04-21T10:52:33.599Z,17.54
2023-04-21T10:55:01.519Z,17.62
2023-04-21T10:57:32.477Z,17.76
2023-04-21T11:00:01.409Z,18.03
2023-04-21T11:02:29.653Z,18.31
2023-04-21T11:04:58.223Z,18.52
2023-04-21T11:07:26.985Z,18.58
2023-04-21T11:10:01.568Z,18.46
2023-04-21T11:12:38.536Z,18.17
2023-04-21T11:15:08.467Z,17.95
2023-04-21T11:17:37.231Z,17.86
2023-04-21T11:20:06.916Z,17.92
2023-04-21T11:22:36.696Z,18.00
2023-04-21T11:25:05.604Z,18.17
2023-04-21T11:27:33.871Z,18.29
2023-04-21T11:30:03.770Z,18.36
2023-04-21T11:32:32.776Z,18.48
2023-04-21T11:35:00.939Z,18.60
2023-04-21T11:37:29.113Z,18.56
2023-04-21T11:39:58.877Z,18.42
2023-04-21T11:42:27.070Z,18.28
2023-04-21T11:44:56.630Z,18.21
2023-04-21T11:47:26.322Z,18.14
2023-04-21T11:49:56.618Z,18.05
2023-04-21T11:52:25.574Z,18.03
2023-04-21T11:55:00.959Z,18.07
2023-04-21T11:57:30.392Z,18.14
2023-04-21T12:00:02.224Z,18.23
2023-04-21T12:02:33.649Z,18.41
2023-04-21T12:05:09.874Z,18.57
2023-04-21T12:07:39.118Z,18.76
2023-04-21T12:10:21.007Z,18.92
2023-04-21T12:12:49.389Z,19.01
2023-04-21T12:15:21.693Z,19.08
2023-04-21T12:17:51.472Z,19.13
2023-04-21T12:20:21.461Z,19.17
2023-04-21T12:22:49.787Z,19.23
2023-04-21T12:25:18.008Z,19.27
2023-04-21T12:27:53.424Z,19.29
2023-04-21T12:30:21.711Z,19.35
2023-04-21T12:32:52.298Z,19.38
2023-04-21T12:35:20.633Z,19.36
2023-04-21T12:37:48.694Z,19.30
2023-04-21T12:40:16.819Z,19.21
2023-04-21T12:42:44.950Z,19.18
2023-04-21T12:45:13.779Z,19.17
2023-04-21T12:47:44.222Z,19.19
2023-04-21T12:50:14.394Z,19.27
2023-04-21T12:52:42.683Z,19.34
2023-04-21T12:55:10.872Z,19.42
2023-04-21T12:57:39.157Z,19.48
2023-04-21T13:00:08.862Z,19.53
2023-04-21T13:02:38.397Z,19.58
2023-04-21T13:05:07.260Z,19.60
2023-04-21T13:07:35.504Z,19.62
2023-04-21T13:10:06.529Z,19.63
2023-04-21T13:12:34.860Z,19.65
2023-04-21T13:15:03.369Z,19.72
2023-04-21T13:17:32.745Z,19.80
2023-04-21T13:20:01.063Z,19.85
2023-04-21T13:22:29.647Z,19.87
2023-04-21T13:24:57.769Z,19.89
2023-04-21T13:35:04.988Z,19.98
2023-04-21T13:37:33.551Z,19.97
2023-04-21T13:40:02.705Z,19.91
2023-04-21T13:42:31.110Z,19.79
2023-04-21T13:44:59.361Z,19.69
2023-04-21T13:47:27.356Z,19.64
2023-04-21T13:49:55.342Z,19.67
2023-04-21T13:52:23.443Z,19.69
2023-04-21T13:54:52.360Z,19.70
2023-04-21T13:57:21.063Z,19.72
2023-04-21T13:59:50.119Z,19.75
2023-04-21T14:02:18.605Z,19.78
2023-04-21T14:04:47.671Z,19.84
2023-04-21T14:07:19.037Z,19.89
2023-04-21T14:09:47.115Z,19.93
2023-04-21T14:12:15.514Z,19.91
2023-04-21T14:14:43.503Z,19.89
2023-04-21T14:17:11.551Z,19.85
2023-04-21T14:19:39.672Z,19.83
2023-04-21T14:22:07.952Z,19.83
2023-04-21T14:24:35.955Z,19.84
2023-04-21T14:27:04.035Z,19.83
2023-04-21T14:29:32.749Z,19.81
2023-04-21T14:32:01.143Z,19.81
2023-04-21T14:34:29.821Z,19.83
2023-04-21T14:36:57.960Z,19.85
2023-04-21T14:39:25.985Z,19.81
2023-04-21T14:41:53.925Z,19.70
2023-04-21T14:44:22.061Z,19.56
2023-04-21T14:47:00.966Z,19.43
2023-04-21T14:49:34.230Z,19.30
2023-04-21T14:52:03.761Z,19.20
2023-04-21T14:54:32.022Z,19.10
2023-04-21T14:57:17.998Z,19.02
2023-04-21T14:59:51.821Z,18.92
2023-04-21T15:02:20.918Z,18.80
2023-04-21T15:04:49.423Z,18.69
2023-04-21T15:07:23.128Z,18.56
2023-04-21T15:09:53.299Z,18.43
2023-04-21T15:12:21.574Z,18.36
2023-04-21T15:14:49.713Z,18.31
2023-04-21T15:17:17.799Z,18.24
2023-04-21T15:19:45.822Z,18.15
2023-04-21T15:22:15.385Z,18.06
2023-04-21T15:24:43.656Z,17.96
2023-04-21T15:27:11.672Z,17.87
2023-04-21T15:29:40.741Z,17.80
2023-04-21T15:32:09.673Z,17.76
2023-04-21T15:34:38.312Z,17.67
2023-04-21T15:37:06.449Z,17.57
2023-04-21T15:39:34.691Z,17.51
